Sarita, Texas
Current Conditions -  °F | °C
As of 11:56 AM on Tuesday 27 Jan 2015 (Local Time) from KNQI Reporting Station
Few Clouds Few Clouds  
Wind Chill: 78°   Ceiling: Unl
Heat Index: 78°   Visibility: 10mi
Dew Point: 39°   Wind: 12mph
Humidity: 25%   Direction: 240°WSW
Pressure: 30.21"   Gusts: NA
Location:  27.22°N, 97.79°W
Report Text: KNQI 271756Z 24010KT 10SM FEW200 26/04 A3021 RMK AO2 SLP227 T02560039 10256 20078 58006 $
Loading
Personal Weather Stations






























Interactive Weather Map New forecast layout! Learn more

10-Day Weather Forecast

Advertisements
Track Severe Weather on mobile